sensor_id;sensor_type;location;lat;lon;timestamp;pressure;altitude;pressure_sealevel;temperature;humidity
4814;BME280;15375;48.540;9.268;2024-03-02T00:00:10;96211.81;;;6.14;100.00
4814;BME280;15375;48.540;9.268;2024-03-02T00:02:46;96216.06;;;6.15;100.00
4814;BME280;15375;48.540;9.268;2024-03-02T00:05:13;96213.72;;;6.17;100.00
4814;BME280;15375;48.540;9.268;2024-03-02T00:07:42;96206.38;;;6.18;100.00
4814;BME280;15375;48.540;9.268;2024-03-02T00:10:10;96217.78;;;6.29;100.00
4814;BME280;15375;48.540;9.268;2024-03-02T00:12:39;96205.41;;;6.28;100.00
4814;BME280;15375;48.540;9.268;2024-03-02T00:15:13;96187.91;;;6.13;100.00
4814;BME280;15375;48.540;9.268;2024-03-02T00:17:52;96195.19;;;6.16;100.00
4814;BME280;15375;48.540;9.268;2024-03-02T00:20:20;96202.50;;;6.19;100.00
4814;BME280;15375;48.540;9.268;2024-03-02T00:22:46;96222.31;;;6.32;100.00
4814;BME280;15375;48.540;9.268;2024-03-02T00:25:12;96220.03;;;6.30;100.00
4814;BME280;15375;48.540;9.268;2024-03-02T00:27:37;96209.06;;;6.18;100.00
4814;BME280;15375;48.540;9.268;2024-03-02T00:32:59;96207.28;;;6.11;100.00
4814;BME280;15375;48.540;9.268;2024-03-02T00:35:24;96223.38;;;6.18;100.00
4814;BME280;15375;48.540;9.268;2024-03-02T00:37:49;96223.38;;;6.18;100.00
4814;BME280;15375;48.540;9.268;2024-03-02T00:40:15;96217.19;;;6.18;100.00
4814;BME280;15375;48.540;9.268;2024-03-02T00:42:41;96209.69;;;6.06;100.00
4814;BME280;15375;48.540;9.268;2024-03-02T00:45:10;96238.91;;;6.14;100.00
4814;BME280;15375;48.540;9.268;2024-03-02T00:47:41;96225.97;;;6.02;100.00
4814;BME280;15375;48.540;9.268;2024-03-02T00:50:07;96224.09;;;5.99;100.00
4814;BME280;15375;48.540;9.268;2024-03-02T00:52:34;96216.88;;;5.93;100.00
4814;BME280;15375;48.540;9.268;2024-03-02T00:54:59;96212.38;;;5.86;100.00
4814;BME280;15375;48.540;9.268;2024-03-02T00:57:25;96217.00;;;5.86;100.00
4814;BME280;15375;48.540;9.268;2024-03-02T00:59:52;96216.63;;;5.84;100.00
4814;BME280;15375;48.540;9.268;2024-03-02T01:02:17;96221.94;;;5.91;100.00
4814;BME280;15375;48.540;9.268;2024-03-02T01:04:45;96198.25;;;5.71;100.00
4814;BME280;15375;48.540;9.268;2024-03-02T01:07:10;96207.97;;;5.69;100.00
4814;BME280;15375;48.540;9.268;2024-03-02T01:09:35;96233.34;;;5.78;100.00
4814;BME280;15375;48.540;9.268;2024-03-02T01:12:01;96208.88;;;5.62;100.00
4814;BME280;15375;48.540;9.268;2024-03-02T01:14:26;96217.28;;;5.68;100.00
4814;BME280;15375;48.540;9.268;2024-03-02T01:16:51;96216.22;;;5.62;100.00
4814;BME280;15375;48.540;9.268;2024-03-02T01:19:17;96216.34;;;5.55;100.00
4814;BME280;15375;48.540;9.268;2024-03-02T01:21:43;96205.22;;;5.49;100.00
4814;BME280;15375;48.540;9.268;2024-03-02T01:24:08;96212.94;;;5.51;100.00
4814;BME280;15375;48.540;9.268;2024-03-02T01:26:33;96218.25;;;5.54;100.00
4814;BME280;15375;48.540;9.268;2024-03-02T01:28:59;96216.03;;;5.49;100.00
4814;BME280;15375;48.540;9.268;2024-03-02T01:31:24;96213.94;;;5.34;100.00
4814;BME280;15375;48.540;9.268;2024-03-02T01:33:49;96217.41;;;5.11;100.00
4814;BME280;15375;48.540;9.268;2024-03-02T01:36:15;96220.16;;;5.07;100.00
4814;BME280;15375;48.540;9.268;2024-03-02T01:38:40;96199.81;;;4.99;100.00
4814;BME280;15375;48.540;9.268;2024-03-02T01:41:06;96220.81;;;5.15;100.00
4814;BME280;15375;48.540;9.268;2024-03-02T01:43:32;96202.13;;;5.01;100.00
4814;BME280;15375;48.540;9.268;2024-03-02T01:45:57;96220.94;;;5.08;100.00
4814;BME280;15375;48.540;9.268;2024-03-02T01:48:23;96204.44;;;4.99;100.00
4814;BME280;15375;48.540;9.268;2024-03-02T01:50:48;96199.25;;;4.85;100.00
4814;BME280;15375;48.540;9.268;2024-03-02T01:53:13;96202.25;;;4.90;100.00
4814;BME280;15375;48.540;9.268;2024-03-02T01:55:39;96197.03;;;4.76;100.00
4814;BME280;15375;48.540;9.268;2024-03-02T01:58:04;96195.91;;;4.74;100.00
4814;BME280;15375;48.540;9.268;2024-03-02T02:00:30;96195.09;;;4.77;100.00
4814;BME280;15375;48.540;9.268;2024-03-02T02:02:57;96202.41;;;4.80;100.00
4814;BME280;15375;48.540;9.268;2024-03-02T02:05:23;96204.22;;;4.60;100.00
4814;BME280;15375;48.540;9.268;2024-03-02T02:07:48;96198.38;;;4.61;100.00
4814;BME280;15375;48.540;9.268;2024-03-02T02:10:14;96180.81;;;4.49;100.00
4814;BME280;15375;48.540;9.268;2024-03-02T02:12:39;96180.56;;;4.40;100.00
4814;BME280;15375;48.540;9.268;2024-03-02T02:15:27;96185.13;;;4.43;100.00
4814;BME280;15375;48.540;9.268;2024-03-02T02:17:54;96176.78;;;4.31;100.00
4814;BME280;15375;48.540;9.268;2024-03-02T02:20:19;96181.75;;;4.36;100.00
4814;BME280;15375;48.540;9.268;2024-03-02T02:22:58;96182.94;;;4.35;100.00
4814;BME280;15375;48.540;9.268;2024-03-02T02:25:24;96172.97;;;4.28;100.00
4814;BME280;15375;48.540;9.268;2024-03-02T02:27:49;96187.28;;;4.25;100.00
4814;BME280;15375;48.540;9.268;2024-03-02T02:30:23;96186.66;;;4.11;100.00
4814;BME280;15375;48.540;9.268;2024-03-02T02:32:49;96193.97;;;4.14;100.00
4814;BME280;15375;48.540;9.268;2024-03-02T02:35:17;96196.31;;;4.12;100.00
4814;BME280;15375;48.540;9.268;2024-03-02T02:37:44;96184.50;;;3.99;100.00
4814;BME280;15375;48.540;9.268;2024-03-02T02:40:11;96191.78;;;4.02;100.00
4814;BME280;15375;48.540;9.268;2024-03-02T02:42:37;96199.09;;;4.01;100.00
4814;BME280;15375;48.540;9.268;2024-03-02T02:45:03;96187.97;;;3.99;100.00
4814;BME280;15375;48.540;9.268;2024-03-02T02:47:28;96177.25;;;3.92;100.00
4814;BME280;15375;48.540;9.268;2024-03-02T02:49:54;96181.44;;;3.97;100.00
4814;BME280;15375;48.540;9.268;2024-03-02T02:52:20;96181.44;;;3.97;100.00
4814;BME280;15375;48.540;9.268;2024-03-02T02:54:46;96168.81;;;3.86;100.00
4814;BME280;15375;48.540;9.268;2024-03-02T02:57:11;96160.84;;;3.76;100.00
4814;BME280;15375;48.540;9.268;2024-03-02T02:59:37;96178.06;;;3.85;100.00
4814;BME280;15375;48.540;9.268;2024-03-02T03:02:02;96170.56;;;3.66;100.00
4814;BME280;15375;48.540;9.268;2024-03-02T03:04:27;96179.03;;;3.68;100.00
4814;BME280;15375;48.540;9.268;2024-03-02T03:06:53;96175.25;;;3.62;100.00
4814;BME280;15375;48.540;9.268;2024-03-02T03:09:18;96169.09;;;3.62;100.00
4814;BME280;15375;48.540;9.268;2024-03-02T03:11:44;96163.00;;;3.51;100.00
4814;BME280;15375;48.540;9.268;2024-03-02T03:14:09;96162.47;;;3.26;100.00
4814;BME280;15375;48.540;9.268;2024-03-02T03:16:34;96169.47;;;3.19;100.00
4814;BME280;15375;48.540;9.268;2024-03-02T03:19:00;96172.97;;;3.13;100.00
4814;BME280;15375;48.540;9.268;2024-03-02T03:21:26;96168.69;;;3.15;100.00
4814;BME280;15375;48.540;9.268;2024-03-02T03:23:51;96167.91;;;3.22;100.00
4814;BME280;15375;48.540;9.268;2024-03-02T03:26:17;96169.13;;;3.14;100.00
4814;BME280;15375;48.540;9.268;2024-03-02T03:28:42;96174.50;;;3.10;100.00
4814;BME280;15375;48.540;9.268;2024-03-02T03:31:07;96139.75;;;2.75;100.00
4814;BME280;15375;48.540;9.268;2024-03-02T03:33:33;96161.16;;;2.96;100.00
4814;BME280;15375;48.540;9.268;2024-03-02T03:35:58;96169.97;;;3.00;100.00
4814;BME280;15375;48.540;9.268;2024-03-02T03:38:23;96183.44;;;3.04;100.00
4814;BME280;15375;48.540;9.268;2024-03-02T03:40:49;96161.53;;;2.98;100.00
4814;BME280;15375;48.540;9.268;2024-03-02T03:43:14;96178.00;;;3.07;100.00
4814;BME280;15375;48.540;9.268;2024-03-02T03:45:39;96169.56;;;3.05;100.00
4814;BME280;15375;48.540;9.268;2024-03-02T03:48:05;96156.56;;;2.93;100.00
4814;BME280;15375;48.540;9.268;2024-03-02T03:50:31;96153.16;;;2.86;100.00
4814;BME280;15375;48.540;9.268;2024-03-02T03:52:56;96174.69;;;2.89;100.00
4814;BME280;15375;48.540;9.268;2024-03-02T03:55:21;96167.41;;;2.83;100.00
4814;BME280;15375;48.540;9.268;2024-03-02T03:57:47;96162.84;;;2.73;100.00
4814;BME280;15375;48.540;9.268;2024-03-02T04:00:12;96154.41;;;2.74;100.00
4814;BME280;15375;48.540;9.268;2024-03-02T04:02:38;96168.19;;;2.80;100.00
4814;BME280;15375;48.540;9.268;2024-03-02T04:05:03;96168.97;;;2.80;100.00
4814;BME280;15375;48.540;9.268;2024-03-02T04:07:34;96167.44;;;2.79;100.00
4814;BME280;15375;48.540;9.268;2024-03-02T04:10:09;96155.91;;;2.75;100.00
4814;BME280;15375;48.540;9.268;2024-03-02T04:12:38;96157.78;;;2.85;100.00
4814;BME280;15375;48.540;9.268;2024-03-02T04:15:07;96168.53;;;2.89;100.00
4814;BME280;15375;48.540;9.268;2024-03-02T04:17:33;96160.44;;;2.89;100.00
4814;BME280;15375;48.540;9.268;2024-03-02T04:19:59;96143.63;;;2.74;100.00
4814;BME280;15375;48.540;9.268;2024-03-02T04:22:26;96166.59;;;2.89;100.00
4814;BME280;15375;48.540;9.268;2024-03-02T04:24:52;96169.69;;;2.88;100.00
4814;BME280;15375;48.540;9.268;2024-03-02T04:27:17;96166.97;;;2.88;100.00
4814;BME280;15375;48.540;9.268;2024-03-02T04:29:42;96171.28;;;2.75;100.00
4814;BME280;15375;48.540;9.268;2024-03-02T04:32:08;96162.13;;;2.69;100.00
4814;BME280;15375;48.540;9.268;2024-03-02T04:34:33;96148.00;;;2.47;100.00
4814;BME280;15375;48.540;9.268;2024-03-02T04:36:58;96177.56;;;2.57;100.00
4814;BME280;15375;48.540;9.268;2024-03-02T04:39:24;96192.91;;;2.64;100.00
4814;BME280;15375;48.540;9.268;2024-03-02T04:41:50;96187.94;;;2.59;100.00
4814;BME280;15375;48.540;9.268;2024-03-02T04:44:15;96179.13;;;2.51;100.00
4814;BME280;15375;48.540;9.268;2024-03-02T04:46:40;96163.81;;;2.34;100.00
4814;BME280;15375;48.540;9.268;2024-03-02T04:49:06;96172.34;;;2.26;100.00
4814;BME280;15375;48.540;9.268;2024-03-02T04:51:31;96178.88;;;2.28;100.00
4814;BME280;15375;48.540;9.268;2024-03-02T04:53:56;96176.19;;;2.25;100.00
4814;BME280;15375;48.540;9.268;2024-03-02T04:56:22;96184.25;;;2.28;100.00
4814;BME280;15375;48.540;9.268;2024-03-02T04:58:56;96180.41;;;2.22;100.00
4814;BME280;15375;48.540;9.268;2024-03-02T05:01:21;96185.38;;;2.27;100.00
4814;BME280;15375;48.540;9.268;2024-03-02T05:03:47;96176.22;;;2.18;100.00
4814;BME280;15375;48.540;9.268;2024-03-02T05:06:12;96169.28;;;2.17;100.00
4814;BME280;15375;48.540;9.268;2024-03-02T05:08:37;96173.16;;;2.16;100.00
4814;BME280;15375;48.540;9.268;2024-03-02T05:11:03;96187.72;;;2.25;100.00
4814;BME280;15375;48.540;9.268;2024-03-02T05:13:47;96185.06;;;2.15;100.00
4814;BME280;15375;48.540;9.268;2024-03-02T05:16:12;96184.69;;;2.13;100.00
4814;BME280;15375;48.540;9.268;2024-03-02T05:18:38;96178.56;;;2.09;100.00
4814;BME280;15375;48.540;9.268;2024-03-02T05:21:03;96179.38;;;1.99;100.00
4814;BME280;15375;48.540;9.268;2024-03-02T05:23:29;96169.00;;;1.90;100.00
4814;BME280;15375;48.540;9.268;2024-03-02T05:25:54;96176.69;;;1.95;100.00
4814;BME280;15375;48.540;9.268;2024-03-02T05:28:19;96182.81;;;1.96;100.00
4814;BME280;15375;48.540;9.268;2024-03-02T05:30:44;96171.72;;;1.79;100.00
4814;BME280;15375;48.540;9.268;2024-03-02T05:33:10;96175.56;;;1.71;100.00
4814;BME280;15375;48.540;9.268;2024-03-02T05:35:35;96197.09;;;1.78;100.00
4814;BME280;15375;48.540;9.268;2024-03-02T05:38:00;96181.72;;;1.72;100.00
4814;BME280;15375;48.540;9.268;2024-03-02T05:40:26;96180.56;;;1.76;100.00
4814;BME280;15375;48.540;9.268;2024-03-02T05:42:51;96196.28;;;1.88;100.00
4814;BME280;15375;48.540;9.268;2024-03-02T05:45:16;96207.03;;;1.92;100.00
4814;BME280;15375;48.540;9.268;2024-03-02T05:47:42;96198.56;;;1.86;100.00
4814;BME280;15375;48.540;9.268;2024-03-02T05:50:07;96205.50;;;1.91;100.00
4814;BME280;15375;48.540;9.268;2024-03-02T05:52:33;96187.81;;;1.86;100.00
4814;BME280;15375;48.540;9.268;2024-03-02T05:54:58;96169.06;;;1.72;100.00
4814;BME280;15375;48.540;9.268;2024-03-02T05:57:24;96176.72;;;1.81;100.00
4814;BME280;15375;48.540;9.268;2024-03-02T06:00:08;96196.28;;;1.88;100.00
4814;BME280;15375;48.540;9.268;2024-03-02T06:02:34;96180.56;;;1.83;100.00
4814;BME280;15375;48.540;9.268;2024-03-02T06:05:03;96191.69;;;1.85;100.00
4814;BME280;15375;48.540;9.268;2024-03-02T06:07:29;96201.63;;;1.99;100.00
4814;BME280;15375;48.540;9.268;2024-03-02T06:09:55;96180.16;;;1.81;100.00
4814;BME280;15375;48.540;9.268;2024-03-02T06:12:22;96176.72;;;1.81;100.00
4814;BME280;15375;48.540;9.268;2024-03-02T06:14:48;96192.06;;;1.91;100.00
4814;BME280;15375;48.540;9.268;2024-03-02T06:17:13;96198.56;;;1.97;100.00
4814;BME280;15375;48.540;9.268;2024-03-02T06:19:38;96206.19;;;2.13;100.00
4814;BME280;15375;48.540;9.268;2024-03-02T06:22:04;96206.16;;;2.20;100.00
4814;BME280;15375;48.540;9.268;2024-03-02T06:24:30;96189.28;;;2.16;100.00
4814;BME280;15375;48.540;9.268;2024-03-02T06:26:56;96214.13;;;2.44;100.00
4814;BME280;15375;48.540;9.268;2024-03-02T06:29:21;96202.59;;;2.51;100.00
4814;BME280;15375;48.540;9.268;2024-03-02T06:31:47;96210.66;;;2.51;100.00
4814;BME280;15375;48.540;9.268;2024-03-02T06:34:12;96222.94;;;2.59;100.00
4814;BME280;15375;48.540;9.268;2024-03-02T06:36:38;96208.38;;;2.46;100.00
4814;BME280;15375;48.540;9.268;2024-03-02T06:39:05;96222.56;;;2.53;100.00
4814;BME280;15375;48.540;9.268;2024-03-02T06:41:31;96229.38;;;2.72;100.00
4814;BME280;15375;48.540;9.268;2024-03-02T06:43:56;96233.66;;;2.66;100.00
4814;BME280;15375;48.540;9.268;2024-03-02T06:46:25;96232.06;;;2.72;100.00
4814;BME280;15375;48.540;9.268;2024-03-02T06:48:50;96240.81;;;2.90;100.00
4814;BME280;15375;48.540;9.268;2024-03-02T06:51:16;96238.03;;;3.08;100.00
4814;BME280;15375;48.540;9.268;2024-03-02T06:53:41;96232.59;;;3.15;100.00
4814;BME280;15375;48.540;9.268;2024-03-02T06:56:07;96244.38;;;3.39;100.00
4814;BME280;15375;48.540;9.268;2024-03-02T06:58:33;96241.53;;;3.56;100.00
4814;BME280;15375;48.540;9.268;2024-03-02T07:00:58;96233.50;;;3.49;100.00
4814;BME280;15375;48.540;9.268;2024-03-02T07:03:25;96233.03;;;3.58;100.00
4814;BME280;15375;48.540;9.268;2024-03-02T07:05:51;96236.66;;;3.85;100.00
4814;BME280;15375;48.540;9.268;2024-03-02T07:08:16;96231.16;;;3.96;100.00
4814;BME280;15375;48.540;9.268;2024-03-02T07:10:42;96237.78;;;4.25;100.00
4814;BME280;15375;48.540;9.268;2024-03-02T07:13:07;96221.97;;;4.27;100.00
4814;BME280;15375;48.540;9.268;2024-03-02T07:15:32;96211.13;;;4.30;100.00
4814;BME280;15375;48.540;9.268;2024-03-02T07:18:16;96224.28;;;4.59;100.00
4814;BME280;15375;48.540;9.268;2024-03-02T07:20:42;96235.88;;;5.16;100.00
4814;BME280;15375;48.540;9.268;2024-03-02T07:23:07;96241.13;;;5.50;100.00
4814;BME280;15375;48.540;9.268;2024-03-02T07:25:34;96238.03;;;5.74;100.00
4814;BME280;15375;48.540;9.268;2024-03-02T07:27:59;96226.00;;;6.22;100.00
4814;BME280;15375;48.540;9.268;2024-03-02T07:30:25;96210.50;;;6.81;100.00
4814;BME280;15375;48.540;9.268;2024-03-02T07:32:50;96218.88;;;7.06;100.00
4814;BME280;15375;48.540;9.268;2024-03-02T07:35:18;96217.31;;;6.89;100.00
4814;BME280;15375;48.540;9.268;2024-03-02T07:37:46;96214.44;;;7.13;100.00
4814;BME280;15375;48.540;9.268;2024-03-02T07:40:11;96217.44;;;7.18;100.00
4814;BME280;15375;48.540;9.268;2024-03-02T07:42:38;96203.81;;;7.38;100.00
4814;BME280;15375;48.540;9.268;2024-03-02T07:45:04;96208.50;;;7.37;100.00
4814;BME280;15375;48.540;9.268;2024-03-02T07:47:30;96210.94;;;7.48;100.00
4814;BME280;15375;48.540;9.268;2024-03-02T07:49:55;96205.34;;;7.55;100.00
4814;BME280;15375;48.540;9.268;2024-03-02T07:52:21;96210.94;;;7.64;100.00
4814;BME280;15375;48.540;9.268;2024-03-02T07:54:46;96205.50;;;7.64;100.00
4814;BME280;15375;48.540;9.268;2024-03-02T07:57:11;96215.66;;;7.76;100.00
4814;BME280;15375;48.540;9.268;2024-03-02T07:59:37;96216.75;;;7.95;100.00
4814;BME280;15375;48.540;9.268;2024-03-02T08:02:03;96185.47;;;7.90;100.00
4814;BME280;15375;48.540;9.268;2024-03-02T08:04:28;96199.72;;;7.94;100.00
4814;BME280;15375;48.540;9.268;2024-03-02T08:06:53;96217.16;;;8.09;100.00
4814;BME280;15375;48.540;9.268;2024-03-02T08:09:19;96196.19;;;8.10;100.00
4814;BME280;15375;48.540;9.268;2024-03-02T08:11:45;96199.84;;;8.03;100.00
4814;BME280;15375;48.540;9.268;2024-03-02T08:14:10;96209.03;;;7.93;100.00
4814;BME280;15375;48.540;9.268;2024-03-02T08:16:35;96216.19;;;7.71;100.00
4814;BME280;15375;48.540;9.268;2024-03-02T08:19:01;96219.00;;;7.67;100.00
4814;BME280;15375;48.540;9.268;2024-03-02T08:21:26;96218.78;;;7.91;100.00
4814;BME280;15375;48.540;9.268;2024-03-02T08:23:56;96190.28;;;7.99;100.00
4814;BME280;15375;48.540;9.268;2024-03-02T08:26:22;96199.81;;;8.36;100.00
4814;BME280;15375;48.540;9.268;2024-03-02T08:28:47;96185.44;;;8.76;100.00
4814;BME280;15375;48.540;9.268;2024-03-02T08:31:12;96174.47;;;9.05;100.00
4814;BME280;15375;48.540;9.268;2024-03-02T08:33:38;96175.09;;;9.47;100.00
4814;BME280;15375;48.540;9.268;2024-03-02T08:36:03;96182.28;;;10.00;100.00
4814;BME280;15375;48.540;9.268;2024-03-02T08:38:29;96179.03;;;10.70;100.00
4814;BME280;15375;48.540;9.268;2024-03-02T08:40:54;96166.28;;;11.29;94.40
4814;BME280;15375;48.540;9.268;2024-03-02T08:43:20;96150.97;;;11.31;88.04
4814;BME280;15375;48.540;9.268;2024-03-02T08:45:45;96156.31;;;11.53;83.12
4814;BME280;15375;48.540;9.268;2024-03-02T08:48:12;96170.91;;;11.59;81.36
4814;BME280;15375;48.540;9.268;2024-03-02T08:50:37;96166.13;;;11.72;77.77
4814;BME280;15375;48.540;9.268;2024-03-02T08:53:04;96166.28;;;11.87;77.04
4814;BME280;15375;48.540;9.268;2024-03-02T08:55:29;96155.78;;;11.67;74.59
4814;BME280;15375;48.540;9.268;2024-03-02T08:57:55;96171.94;;;11.43;80.41
4814;BME280;15375;48.540;9.268;2024-03-02T09:00:21;96173.34;;;11.57;80.00
4814;BME280;15375;48.540;9.268;2024-03-02T09:02:47;96169.78;;;11.87;78.11
4814;BME280;15375;48.540;9.268;2024-03-02T09:05:13;96178.00;;;12.05;75.41
4814;BME280;15375;48.540;9.268;2024-03-02T09:07:38;96156.75;;;12.09;75.07
4814;BME280;15375;48.540;9.268;2024-03-02T09:10:07;96171.13;;;11.74;74.46
4814;BME280;15375;48.540;9.268;2024-03-02T09:12:33;96172.22;;;12.58;83.24
4814;BME280;15375;48.540;9.268;2024-03-02T09:15:00;96186.94;;;12.60;83.36
4814;BME280;15375;48.540;9.268;2024-03-02T09:17:26;96184.38;;;12.66;84.14
4814;BME280;15375;48.540;9.268;2024-03-02T09:19:52;96179.88;;;13.14;81.70
4814;BME280;15375;48.540;9.268;2024-03-02T09:22:20;96148.94;;;13.79;78.66
4814;BME280;15375;48.540;9.268;2024-03-02T09:24:45;96173.69;;;14.70;72.88
4814;BME280;15375;48.540;9.268;2024-03-02T09:27:10;96174.34;;;14.80;68.88
4814;BME280;15375;48.540;9.268;2024-03-02T09:29:36;96160.03;;;14.76;60.44
4814;BME280;15375;48.540;9.268;2024-03-02T09:32:01;96173.56;;;14.50;62.08
4814;BME280;15375;48.540;9.268;2024-03-02T09:34:27;96170.44;;;13.95;62.70
4814;BME280;15375;48.540;9.268;2024-03-02T09:36:52;96156.50;;;13.60;64.25
4814;BME280;15375;48.540;9.268;2024-03-02T09:39:18;96161.25;;;14.45;59.52
4814;BME280;15375;48.540;9.268;2024-03-02T09:41:43;96155.59;;;14.78;59.44
4814;BME280;15375;48.540;9.268;2024-03-02T09:44:09;96147.56;;;15.53;57.58
4814;BME280;15375;48.540;9.268;2024-03-02T09:46:35;96150.56;;;15.20;57.32
4814;BME280;15375;48.540;9.268;2024-03-02T09:49:02;96134.41;;;15.57;56.58
4814;BME280;15375;48.540;9.268;2024-03-02T09:51:27;96136.69;;;15.99;57.59
4814;BME280;15375;48.540;9.268;2024-03-02T09:53:54;96135.88;;;16.13;55.36
4814;BME280;15375;48.540;9.268;2024-03-02T09:56:21;96126.00;;;15.66;57.44
4814;BME280;15375;48.540;9.268;2024-03-02T09:58:47;96122.09;;;15.53;57.35
4814;BME280;15375;48.540;9.268;2024-03-02T10:01:12;96113.78;;;14.98;56.29
4814;BME280;15375;48.540;9.268;2024-03-02T10:03:38;96116.44;;;14.92;56.69
4814;BME280;15375;48.540;9.268;2024-03-02T10:06:23;96126.00;;;14.82;57.06
4814;BME280;15375;48.540;9.268;2024-03-02T10:08:49;96075.59;;;15.00;56.35
4814;BME280;15375;48.540;9.268;2024-03-02T10:11:32;96112.97;;;15.12;57.68
4814;BME280;15375;48.540;9.268;2024-03-02T10:16:43;96113.78;;;16.08;54.31
4814;BME280;15375;48.540;9.268;2024-03-02T10:19:23;96100.56;;;15.51;55.28
4814;BME280;15375;48.540;9.268;2024-03-02T10:21:50;96107.34;;;15.90;55.75
4814;BME280;15375;48.540;9.268;2024-03-02T10:24:16;96099.78;;;15.85;55.93
4814;BME280;15375;48.540;9.268;2024-03-02T10:26:41;96101.84;;;16.11;56.15
4814;BME280;15375;48.540;9.268;2024-03-02T10:29:09;96091.97;;;16.24;53.82
4814;BME280;15375;48.540;9.268;2024-03-02T10:31:39;96086.31;;;16.33;53.42
4814;BME280;15375;48.540;9.268;2024-03-02T10:34:05;96109.88;;;16.40;55.94
4814;BME280;15375;48.540;9.268;2024-03-02T10:36:32;96106.47;;;16.25;57.75
4814;BME280;15375;48.540;9.268;2024-03-02T10:39:01;96104.38;;;16.40;55.95
4814;BME280;15375;48.540;9.268;2024-03-02T10:41:28;96087.03;;;16.28;56.75
4814;BME280;15375;48.540;9.268;2024-03-02T10:43:54;96095.84;;;16.58;56.71
4814;BME280;15375;48.540;9.268;2024-03-02T10:46:28;96087.59;;;16.58;55.61
4814;BME280;15375;48.540;9.268;2024-03-02T10:48:58;96082.84;;;16.90;57.54
4814;BME280;15375;48.540;9.268;2024-03-02T10:51:28;96081.53;;;16.54;53.70
4814;BME280;15375;48.540;9.268;2024-03-02T10:53:57;96088.56;;;16.55;55.24
4814;BME280;15375;48.540;9.268;2024-03-02T10:56:28;96088.41;;;16.18;54.29
4814;BME280;15375;48.540;9.268;2024-03-02T10:59:02;96074.16;;;16.20;57.36
4814;BME280;15375;48.540;9.268;2024-03-02T11:01:32;96074.19;;;16.45;59.33
4814;BME280;15375;48.540;9.268;2024-03-02T11:03:58;96070.72;;;16.50;58.07
4814;BME280;15375;48.540;9.268;2024-03-02T11:06:26;96059.19;;;16.21;58.73
4814;BME280;15375;48.540;9.268;2024-03-02T11:08:55;96069.00;;;16.27;60.64
4814;BME280;15375;48.540;9.268;2024-03-02T11:11:29;96061.63;;;16.19;58.40
4814;BME280;15375;48.540;9.268;2024-03-02T11:13:56;96047.69;;;16.22;58.43
4814;BME280;15375;48.540;9.268;2024-03-02T11:16:34;96050.34;;;16.63;56.38
4814;BME280;15375;48.540;9.268;2024-03-02T11:19:04;96056.56;;;16.89;58.16
4814;BME280;15375;48.540;9.268;2024-03-02T11:21:32;96037.84;;;16.98;56.17
4814;BME280;15375;48.540;9.268;2024-03-02T11:23:58;96048.00;;;16.81;55.87
4814;BME280;15375;48.540;9.268;2024-03-02T11:26:23;96033.25;;;17.27;54.35
4814;BME280;15375;48.540;9.268;2024-03-02T11:28:49;96040.69;;;17.15;54.36
4814;BME280;15375;48.540;9.268;2024-03-02T11:31:15;96036.69;;;17.58;54.38
4814;BME280;15375;48.540;9.268;2024-03-02T11:33:40;96008.88;;;17.08;47.89
4814;BME280;15375;48.540;9.268;2024-03-02T11:36:07;96006.59;;;16.70;48.29
4814;BME280;15375;48.540;9.268;2024-03-02T11:38:33;96020.09;;;17.05;49.91
4814;BME280;15375;48.540;9.268;2024-03-02T11:41:00;96014.06;;;17.01;48.97
4814;BME280;15375;48.540;9.268;2024-03-02T11:43:30;96011.19;;;16.84;48.51
4814;BME280;15375;48.540;9.268;2024-03-02T11:46:01;96006.22;;;16.88;49.24
4814;BME280;15375;48.540;9.268;2024-03-02T11:48:29;96004.13;;;17.09;48.33
4814;BME280;15375;48.540;9.268;2024-03-02T11:50:58;95993.78;;;16.98;47.53
4814;BME280;15375;48.540;9.268;2024-03-02T11:53:23;95980.84;;;16.73;48.59
4814;BME280;15375;48.540;9.268;2024-03-02T11:55:50;95991.69;;;16.25;49.07
4814;BME280;15375;48.540;9.268;2024-03-02T11:58:16;95996.88;;;16.49;50.08
4814;BME280;15375;48.540;9.268;2024-03-02T12:00:43;95974.25;;;16.34;48.30
4814;BME280;15375;48.540;9.268;2024-03-02T12:03:12;95978.56;;;16.40;46.97
4814;BME280;15375;48.540;9.268;2024-03-02T12:05:38;95974.09;;;16.43;48.69
4814;BME280;15375;48.540;9.268;2024-03-02T12:08:06;95976.84;;;16.74;48.31
4814;BME280;15375;48.540;9.268;2024-03-02T12:10:32;95968.66;;;16.85;46.85
4814;BME280;15375;48.540;9.268;2024-03-02T12:13:01;95963.59;;;16.78;47.55
4814;BME280;15375;48.540;9.268;2024-03-02T12:15:29;95943.38;;;16.87;46.98
4814;BME280;15375;48.540;9.268;2024-03-02T12:17:55;95965.88;;;17.28;47.84
4814;BME280;15375;48.540;9.268;2024-03-02T12:20:22;95960.16;;;17.37;45.94
4814;BME280;15375;48.540;9.268;2024-03-02T12:22:52;95949.50;;;17.61;47.07
4814;BME280;15375;48.540;9.268;2024-03-02T12:25:19;95952.75;;;17.59;46.02
4814;BME280;15375;48.540;9.268;2024-03-02T12:27:45;95950.53;;;17.15;45.48
4814;BME280;15375;48.540;9.268;2024-03-02T12:30:11;95958.25;;;17.06;48.50
4814;BME280;15375;48.540;9.268;2024-03-02T12:32:40;95940.59;;;16.50;46.83
4814;BME280;15375;48.540;9.268;2024-03-02T12:35:09;95947.13;;;16.89;46.24
4814;BME280;15375;48.540;9.268;2024-03-02T12:37:45;95948.72;;;17.01;46.19
4814;BME280;15375;48.540;9.268;2024-03-02T12:40:12;95944.59;;;16.80;46.96
4814;BME280;15375;48.540;9.268;2024-03-02T12:42:38;95923.75;;;16.68;47.22
4814;BME280;15375;48.540;9.268;2024-03-02T12:45:05;95939.25;;;16.66;45.94
4814;BME280;15375;48.540;9.268;2024-03-02T12:47:32;95937.00;;;17.06;46.49
4814;BME280;15375;48.540;9.268;2024-03-02T12:49:58;95934.13;;;16.90;45.26
4814;BME280;15375;48.540;9.268;2024-03-02T12:52:24;95922.28;;;16.73;45.58
4814;BME280;15375;48.540;9.268;2024-03-02T12:54:50;95913.84;;;16.50;46.06
4814;BME280;15375;48.540;9.268;2024-03-02T12:57:19;95902.81;;;16.45;45.93
4814;BME280;15375;48.540;9.268;2024-03-02T12:59:47;95929.81;;;16.41;45.98
4814;BME280;15375;48.540;9.268;2024-03-02T13:02:19;95921.03;;;16.79;45.79
4814;BME280;15375;48.540;9.268;2024-03-02T13:04:52;95921.41;;;16.98;45.84
4814;BME280;15375;48.540;9.268;2024-03-02T13:07:18;95924.75;;;17.18;45.73
4814;BME280;15375;48.540;9.268;2024-03-02T13:09:45;95903.72;;;17.15;44.72
4814;BME280;15375;48.540;9.268;2024-03-02T13:12:11;95912.88;;;16.96;45.16